Skogbrann Fra: 22-04-2019 23:00 Inntil: 23-04-2019 22:59 Advarsel for: Skogbrann Nivå: Gul info button

METAR Rapporter

 

ENZV - Stavanger
Oppdatert: 22/04/2019 10:20
klart
klart
 Vind fra SØ
Vind: SØ 26 km/h
Temperatur: 17°C
Duggpunkt: 0°C
Fuktighet: 32%
Barometer: 1018 hPa
Oversikt: klart
Sikt: greater than 10 km
2019/04/22 08:20 ENZV 220820Z 14014KT CAVOK 17/M00 Q1018 NOSIG
ENBR - Bergen
Oppdatert: 22/04/2019 10:20
klart
klart
 Vind fra SSV
Vind: SSV 17 km/h
Temperatur: 13°C
Duggpunkt: 2°C
Fuktighet: 47%
Barometer: 1018 hPa
Oversikt: klart
Sikt: greater than 10 km
2019/04/22 08:20 ENBR 220820Z 21009KT CAVOK 13/02 Q1018 NOSIG RMK WIND 1200FT 16018KT
 
ENHD - Haugesund
Oppdatert: 22/04/2019 10:20
klart
klart
 Vind fra SØ
Vind: SØ 22 km/h
Temperatur: 15°C
Duggpunkt: 2°C
Fuktighet: 42%
Barometer: 1018 hPa
Oversikt: klart
Sikt: greater than 10 km
2019/04/22 08:20 ENHD 220820Z 14012KT CAVOK 15/02 Q1018
ENCN - Kristiansand
Oppdatert: 22/04/2019 10:20
klart
klart
 Vind fra VSV
Vind: VSV 6 km/h
Temperatur: 13°C
Duggpunkt: 1°C
Fuktighet: 44%
Barometer: 1021 hPa
Oversikt: klart
Sikt: greater than 10 km
2019/04/22 08:20 ENCN 220820Z 24003KT CAVOK 13/01 Q1021
 
ENBO - Bodø
Oppdatert: 22/04/2019 10:20
lett regn, hovedsaklig skyet
lett regn, hovedsaklig skyet
 Vind fra ØSØ
Vind: ØSØ 26 km/h
Temperatur: 8°C
Vindkjøling: 4°C
Duggpunkt: 1°C
Fuktighet: 62%
Barometer: 1014 hPa
Oversikt: lett regn
Skyet: hovedsaklig skyet
Sikt: 10 km
Cloud details: Few Clouds 914 m
hovedsaklig skyet 1219 m
2019/04/22 08:20 ENBO 220820Z 11014KT 9999 -RA FEW030 BKN040 08/01 Q1014 NOSIG
ENKR - Kirkenes
Oppdatert: 22/04/2019 10:20
hovedsaklig skyet
hovedsaklig skyet
 Vind fra VNV
Vind: VNV 31 km/h
Temperatur: 7°C
Vindkjøling: 3°C
Duggpunkt: 1°C
Fuktighet: 66%
Barometer: 1012 hPa
Skyet: hovedsaklig skyet
Sikt: 10 km
Cloud details: delvis skyet 823 m
hovedsaklig skyet 1676 m
2019/04/22 08:20 ENKR 220820Z 29017KT 9999 SCT027 BKN055 07/01 Q1012 RMK WIND 731FT 28025KT
 
ENVA - Trondheim
Oppdatert: 22/04/2019 10:20
klart
klart
 Vind fra varies
Vind: varies 2 km/h
Temperatur: 12°C
Duggpunkt: 7°C
Fuktighet: 72%
Barometer: 1017 hPa
Oversikt: klart
Sikt: greater than 10 km
2019/04/22 08:20 ENVA 220820Z VRB01KT CAVOK 12/07 Q1017 NOSIG RMK WIND 670FT VRB03KT
ENGM - Oslo
Oppdatert: 22/04/2019 10:20
klart
klart
 Vind fra S
Vind: S 9 km/h
Temperatur: 11°C
Duggpunkt: 4°C
Fuktighet: 62%
Barometer: 1021 hPa
Oversikt: klart
Sikt: greater than 10 km
2019/04/22 08:20 ENGM 220820Z 17005KT 120V240 CAVOK 11/04 Q1021 NOSIG